Time;durP1;ratioP1;P1;durP2;ratioP2;P2;SDS_P1;SDS_P2;PMS_P1;PMS_P2;Temp;Humidity;BMP_temperature;BMP_pressure;BME280_temperature;BME280_humidity;BME280_pressure;Samples;Min_cycle;Max_cycle;Signal;HPM_P1;HPM_P2
2023/12/18 00:00:52;;;;;;;8.60;5.80;;;;;;;5.82;85.67;99583.60;105556;1262;72909;-26
2023/12/18 00:03:19;;;;;;;7.90;5.00;;;;;;;5.75;86.23;99574.66;105577;1258;61056;-26
2023/12/18 00:05:46;;;;;;;7.70;4.90;;;;;;;5.43;87.22;99557.85;105573;1268;61177;-26
2023/12/18 00:08:14;;;;;;;9.70;5.80;;;;;;;5.68;86.86;99564.69;105475;1266;72944;-27
2023/12/18 00:10:41;;;;;;;6.00;4.80;;;;;;;5.84;85.45;99563.67;105485;1263;74375;-26
2023/12/18 00:13:08;;;;;;;5.90;4.50;;;;;;;5.70;86.11;99576.31;105481;1263;72525;-26
2023/12/18 00:15:35;;;;;;;8.00;5.70;;;;;;;5.60;86.27;99574.54;105568;1263;61155;-27
2023/12/18 00:18:02;;;;;;;6.90;4.30;;;;;;;5.38;87.61;99565.86;105539;1263;61142;-26
2023/12/18 00:20:29;;;;;;;7.70;5.00;;;;;;;5.78;86.10;99565.87;105528;1257;74095;-26
2023/12/18 00:22:56;;;;;;;7.50;4.80;;;;;;;5.82;85.24;99558.59;105573;1267;74952;-26
2023/12/18 00:25:23;;;;;;;9.70;5.30;;;;;;;5.68;85.39;99551.42;105526;1257;73233;-26
2023/12/18 00:27:50;;;;;;;7.90;5.90;;;;;;;5.52;86.15;99544.52;105442;1263;61607;-27
2023/12/18 00:30:17;;;;;;;7.30;4.80;;;;;;;5.57;86.32;99541.69;105218;1262;61287;-26
2023/12/18 00:32:44;;;;;;;8.30;5.10;;;;;;;5.78;85.01;99540.54;105548;1258;74501;-26
2023/12/18 00:35:12;;;;;;;11.20;5.50;;;;;;;5.84;84.46;99542.51;105514;1262;76100;-26
2023/12/18 00:37:39;;;;;;;10.30;5.80;;;;;;;5.64;85.21;99547.86;105284;1264;72535;-26
2023/12/18 00:40:07;;;;;;;6.60;4.40;;;;;;;5.47;86.27;99545.26;105310;1261;61779;-26
2023/12/18 00:42:35;;;;;;;9.80;5.60;;;;;;;5.81;84.79;99542.45;105265;1269;61742;-26
2023/12/18 00:45:02;;;;;;;8.50;4.70;;;;;;;5.90;84.16;99548.36;105542;1262;74406;-26
2023/12/18 00:47:30;;;;;;;6.80;5.10;;;;;;;5.76;84.21;99527.20;105549;1263;74294;-26
2023/12/18 00:49:57;;;;;;;5.20;3.90;;;;;;;5.55;85.33;99518.34;105317;1258;72627;-26
2023/12/18 00:52:24;;;;;;;9.20;5.40;;;;;;;5.56;85.73;99523.79;105555;1262;61690;-26
2023/12/18 00:54:51;;;;;;;7.10;4.70;;;;;;;5.72;84.87;99524.83;105507;1264;61236;-27
2023/12/18 00:57:18;;;;;;;7.60;5.70;;;;;;;5.81;84.05;99528.47;105558;1257;73670;-26
2023/12/18 00:59:45;;;;;;;7.10;4.50;;;;;;;5.58;84.65;99522.33;105428;1263;73360;-26
2023/12/18 01:02:12;;;;;;;6.20;4.40;;;;;;;5.40;85.68;99513.45;105241;1264;72458;-26
2023/12/18 01:04:40;;;;;;;7.50;5.00;;;;;;;5.66;84.92;99500.86;105453;1263;61124;-26
2023/12/18 01:07:07;;;;;;;6.20;4.80;;;;;;;5.95;83.03;99489.47;105454;1262;61161;-26
2023/12/18 01:09:34;;;;;;;8.70;5.90;;;;;;;5.78;83.23;99492.50;105266;1258;74270;-26
2023/12/18 01:12:01;;;;;;;9.20;6.10;;;;;;;5.52;84.45;99494.92;105397;1263;74775;-26
2023/12/18 01:14:28;;;;;;;9.30;5.20;;;;;;;5.40;85.08;99476.60;105298;1260;72339;-26
2023/12/18 01:16:55;;;;;;;8.10;5.00;;;;;;;5.54;84.84;99474.98;105099;1258;61140;-26
2023/12/18 01:19:22;;;;;;;9.70;5.10;;;;;;;5.75;83.32;99479.36;105453;1262;61161;-26
2023/12/18 01:21:50;;;;;;;6.10;4.10;;;;;;;5.69;83.67;99468.86;105583;1261;74445;-26
2023/12/18 01:24:17;;;;;;;8.50;5.50;;;;;;;5.61;83.89;99468.23;105592;1257;74333;-26
2023/12/18 01:26:44;;;;;;;8.80;5.60;;;;;;;5.31;85.09;99491.35;105481;1261;72684;-26
2023/12/18 01:29:12;;;;;;;8.30;5.70;;;;;;;5.58;84.13;99469.45;105534;1262;61156;-26
2023/12/18 01:31:38;;;;;;;7.50;5.30;;;;;;;5.61;83.81;99462.21;105472;1262;61093;-26
2023/12/18 01:34:05;;;;;;;8.70;6.20;;;;;;;5.59;83.44;99460.77;105548;1262;73839;-26
2023/12/18 01:36:32;;;;;;;9.60;6.60;;;;;;;5.38;84.41;99470.83;105549;1263;74121;-27
2023/12/18 01:39:00;;;;;;;9.10;6.10;;;;;;;5.41;85.05;99469.63;105470;1258;73956;-26
2023/12/18 01:41:27;;;;;;;10.60;5.80;;;;;;;5.58;83.70;99458.26;105465;1258;61439;-26
2023/12/18 01:43:54;;;;;;;8.90;5.60;;;;;;;5.69;82.88;99466.26;105376;1257;61100;-26
2023/12/18 01:46:24;;;;;;;10.80;6.70;;;;;;;5.59;82.96;99445.80;105475;1261;74376;-26
2023/12/18 01:48:51;;;;;;;8.30;5.60;;;;;;;5.47;83.70;99453.98;105389;1262;74148;-26
2023/12/18 01:51:19;;;;;;;9.10;5.90;;;;;;;5.47;83.78;99445.91;105139;1260;72433;-26
2023/12/18 01:53:48;;;;;;;11.00;7.40;;;;;;;5.78;82.37;99434.44;105171;1263;61153;-26
2023/12/18 01:56:16;;;;;;;7.70;5.50;;;;;;;5.72;82.07;99431.13;105329;1265;61134;-26
2023/12/18 01:58:44;;;;;;;11.00;6.00;;;;;;;5.63;82.49;99429.71;105119;1266;73848;-26
2023/12/18 02:01:11;;;;;;;9.10;6.70;;;;;;;5.45;83.17;99419.16;105089;1258;74148;-26
2023/12/18 02:03:39;;;;;;;12.50;6.80;;;;;;;5.50;83.38;99414.42;105170;1263;71586;-27
2023/12/18 02:06:06;;;;;;;12.30;7.90;;;;;;;5.79;81.94;99414.04;105105;1262;61193;-26
2023/12/18 02:08:34;;;;;;;13.00;8.10;;;;;;;5.66;81.94;99397.35;105074;1264;61230;-26
2023/12/18 02:11:01;;;;;;;13.10;8.10;;;;;;;5.59;82.24;99407.38;105124;1257;73522;-26
2023/12/18 02:13:29;;;;;;;14.30;8.60;;;;;;;5.39;82.97;99421.70;105176;1263;74163;-26
2023/12/18 02:15:57;;;;;;;10.50;7.10;;;;;;;5.41;83.45;99420.95;105536;1257;73624;-26
2023/12/18 02:18:24;;;;;;;15.30;8.50;;;;;;;5.68;82.02;99423.59;105395;1260;61134;-26
2023/12/18 02:20:51;;;;;;;14.30;7.30;;;;;;;5.63;82.08;99428.52;105414;1263;61462;-26
2023/12/18 02:23:18;;;;;;;12.20;7.20;;;;;;;5.49;82.50;99421.52;105420;1257;74422;-26
2023/12/18 02:25:45;;;;;;;14.20;7.20;;;;;;;5.38;82.57;99414.70;105267;1262;74141;-26
2023/12/18 02:28:12;;;;;;;12.10;7.70;;;;;;;5.41;83.03;99411.09;105098;1257;72654;-26
2023/12/18 02:30:39;;;;;;;15.60;9.60;;;;;;;5.60;81.87;99408.52;105029;1260;61081;-26
2023/12/18 02:33:07;;;;;;;15.30;9.40;;;;;;;5.62;81.85;99421.52;105197;1262;61163;-26
2023/12/18 02:35:34;;;;;;;14.90;9.10;;;;;;;5.50;82.18;99422.01;105164;1262;73820;-26
2023/12/18 02:38:01;;;;;;;14.30;7.90;;;;;;;5.38;82.50;99404.20;105158;1263;74176;-26
2023/12/18 02:40:28;;;;;;;14.70;9.40;;;;;;;5.37;82.50;99399.42;105368;1263;73102;-26
2023/12/18 02:42:55;;;;;;;14.60;8.80;;;;;;;5.67;81.16;99392.64;105133;1264;61153;-26
2023/12/18 02:45:22;;;;;;;10.70;8.00;;;;;;;5.62;80.92;99393.22;105121;1264;61205;-26
2023/12/18 02:47:49;;;;;;;14.60;8.50;;;;;;;5.55;81.20;99394.34;105184;1260;73635;-27
2023/12/18 02:50:17;;;;;;;19.60;8.90;;;;;;;5.37;81.51;99395.12;105124;1257;74392;-26
2023/12/18 02:52:44;;;;;;;12.10;8.00;;;;;;;5.28;82.20;99391.86;105299;1261;72727;-26
2023/12/18 02:55:12;;;;;;;12.60;8.90;;;;;;;5.66;80.62;99409.75;105270;1257;61065;-26
2023/12/18 02:57:39;;;;;;;13.30;8.50;;;;;;;5.79;79.61;99403.50;105310;1263;61183;-26
2023/12/18 03:00:08;;;;;;;17.10;9.60;;;;;;;5.58;79.86;99390.75;105186;1257;73828;-27
2023/12/18 03:02:37;;;;;;;19.90;9.60;;;;;;;5.29;81.07;99399.04;105530;1262;74335;-26
2023/12/18 03:05:05;;;;;;;10.60;7.00;;;;;;;5.09;82.09;99397.30;105651;1254;71218;-26
2023/12/18 03:07:32;;;;;;;13.50;8.10;;;;;;;5.37;81.20;99392.38;105375;1260;61141;-26
2023/12/18 03:09:59;;;;;;;14.90;8.60;;;;;;;5.67;79.76;99385.95;105476;1261;61215;-26
2023/12/18 03:12:26;;;;;;;13.30;8.20;;;;;;;5.67;79.39;99382.78;105493;1254;73637;-27
2023/12/18 03:14:54;;;;;;;14.40;8.90;;;;;;;5.45;79.79;99382.84;105573;1258;74402;-27
2023/12/18 03:17:21;;;;;;;13.20;7.50;;;;;;;5.25;80.80;99391.13;105457;1254;72575;-26
2023/12/18 03:19:47;;;;;;;14.60;8.00;;;;;;;5.16;81.07;99375.77;105468;1254;61194;-27
2023/12/18 03:22:15;;;;;;;11.20;6.70;;;;;;;5.62;79.67;99382.04;105644;1254;61836;-27
2023/12/18 03:24:42;;;;;;;14.60;8.40;;;;;;;5.83;78.35;99376.59;105566;1255;74323;-26
2023/12/18 03:27:10;;;;;;;11.20;6.90;;;;;;;5.72;78.50;99369.48;105649;1255;75336;-27
2023/12/18 03:29:37;;;;;;;13.30;7.90;;;;;;;5.61;79.15;99365.42;105642;1260;72501;-27
2023/12/18 03:32:04;;;;;;;10.70;7.00;;;;;;;5.34;79.79;99354.98;105649;1259;61141;-26
2023/12/18 03:34:31;;;;;;;7.80;5.90;;;;;;;5.46;79.75;99340.24;105716;1257;61167;-27
2023/12/18 03:36:59;;;;;;;13.00;7.60;;;;;;;5.87;77.97;99350.88;105689;1255;74026;-26
2023/12/18 03:39:26;;;;;;;9.50;6.20;;;;;;;5.78;77.80;99360.86;105621;1255;74405;-27
2023/12/18 03:41:53;;;;;;;10.20;7.00;;;;;;;5.70;78.09;99348.52;105579;1261;72653;-27
2023/12/18 03:44:20;;;;;;;11.90;7.40;;;;;;;5.54;78.72;99351.13;105524;1254;61138;-27
2023/12/18 03:46:49;;;;;;;10.30;7.10;;;;;;;5.38;79.60;99352.55;105643;1258;61217;-26
2023/12/18 03:49:16;;;;;;;12.10;6.40;;;;;;;5.48;79.14;99346.48;105633;1259;72407;-26
2023/12/18 03:51:43;;;;;;;11.30;6.00;;;;;;;5.81;77.53;99347.05;105627;1253;73329;-27
2023/12/18 03:54:10;;;;;;;9.60;5.60;;;;;;;5.88;77.07;99361.85;105495;1254;72569;-27
2023/12/18 03:56:37;;;;;;;11.60;7.60;;;;;;;5.77;77.31;99353.82;105499;1254;61112;-26
2023/12/18 03:59:04;;;;;;;12.20;6.70;;;;;;;5.53;78.17;99360.17;105500;1260;61242;-25
2023/12/18 04:01:33;;;;;;;10.70;6.80;;;;;;;5.40;78.95;99385.49;105637;1259;75746;-26
2023/12/18 04:04:00;;;;;;;6.80;4.80;;;;;;;5.53;78.80;99388.60;105599;1254;74407;-27
2023/12/18 04:06:28;;;;;;;9.30;6.10;;;;;;;5.94;76.84;99389.44;105664;1254;71567;-25
2023/12/18 04:08:55;;;;;;;12.50;6.90;;;;;;;5.94;76.25;99386.67;105647;1254;61131;-25
2023/12/18 04:11:22;;;;;;;6.40;4.40;;;;;;;5.72;76.94;99393.24;105457;1260;61102;-27
2023/12/18 04:13:50;;;;;;;12.90;7.20;;;;;;;5.56;77.46;99388.05;105501;1254;74446;-27
2023/12/18 04:16:16;;;;;;;8.20;4.60;;;;;;;5.43;78.02;99384.64;105619;1255;74369;-27
2023/12/18 04:18:43;;;;;;;11.40;5.90;;;;;;;5.66;77.10;99382.20;105626;1254;72897;-27
2023/12/18 04:21:11;;;;;;;7.60;4.30;;;;;;;5.95;75.80;99391.59;105540;1260;61102;-26
2023/12/18 04:23:38;;;;;;;7.70;4.90;;;;;;;5.96;75.51;99392.77;105637;1259;61184;-27
2023/12/18 04:26:05;;;;;;;6.60;4.40;;;;;;;5.79;76.00;99385.42;105468;1253;73854;-28
2023/12/18 04:28:32;;;;;;;11.30;5.50;;;;;;;5.59;76.72;99384.48;105268;1254;74201;-27
2023/12/18 04:30:59;;;;;;;11.10;5.40;;;;;;;5.41;77.84;99377.86;105538;1255;73044;-27
2023/12/18 04:33:26;;;;;;;11.50;6.00;;;;;;;5.56;77.42;99388.28;105409;1254;61090;-27
2023/12/18 04:35:53;;;;;;;11.50;6.80;;;;;;;5.99;75.37;99383.80;105411;1259;61230;-27
2023/12/18 04:38:20;;;;;;;9.70;5.70;;;;;;;5.80;75.30;99367.78;105462;1254;73819;-27
2023/12/18 04:40:47;;;;;;;6.80;5.10;;;;;;;5.60;76.32;99376.98;105570;1255;74323;-27
2023/12/18 04:43:14;;;;;;;10.30;6.00;;;;;;;5.46;76.69;99357.48;105505;1254;72466;-27
2023/12/18 04:45:41;;;;;;;9.40;4.90;;;;;;;5.39;77.22;99368.17;105552;1254;61128;-27
2023/12/18 04:48:08;;;;;;;7.60;4.70;;;;;;;5.59;76.47;99356.58;105455;1257;61112;-27
2023/12/18 04:50:35;;;;;;;6.70;5.10;;;;;;;5.82;75.22;99350.11;105561;1253;73857;-27
2023/12/18 04:53:03;;;;;;;7.00;4.50;;;;;;;5.91;74.73;99352.17;105641;1257;74343;-27
2023/12/18 04:55:29;;;;;;;8.80;5.60;;;;;;;5.69;75.72;99348.45;105515;1254;72395;-27
2023/12/18 04:57:57;;;;;;;9.10;5.70;;;;;;;5.43;76.38;99339.50;105412;1258;60994;-27
2023/12/18 05:00:24;;;;;;;7.20;5.70;;;;;;;5.28;77.29;99342.23;105448;1254;61138;-27
2023/12/18 05:02:51;;;;;;;9.30;6.20;;;;;;;5.34;77.25;99341.04;105547;1253;73714;-26
2023/12/18 05:05:18;;;;;;;12.00;5.90;;;;;;;5.57;76.23;99334.96;105510;1258;74856;-27
2023/12/18 05:07:45;;;;;;;9.20;5.70;;;;;;;5.66;75.62;99342.39;105623;1254;72634;-27
2023/12/18 05:10:12;;;;;;;9.70;6.70;;;;;;;5.49;76.38;99339.21;105640;1254;61153;-27
2023/12/18 05:12:39;;;;;;;10.10;6.70;;;;;;;5.23;77.14;99327.86;105633;1261;61099;-27
2023/12/18 05:15:07;;;;;;;10.20;6.30;;;;;;;5.13;77.99;99344.23;105621;1254;73799;-28
2023/12/18 05:17:38;;;;;;;8.30;5.70;;;;;;;5.38;77.56;99347.73;105591;1254;74334;-27
2023/12/18 05:20:08;;;;;;;8.70;5.90;;;;;;;5.60;76.67;99360.98;105689;1254;72739;-27
2023/12/18 05:22:35;;;;;;;12.00;6.00;;;;;;;5.52;76.41;99358.67;105550;1259;61161;-27
2023/12/18 05:25:02;;;;;;;11.80;6.60;;;;;;;5.45;76.90;99354.73;105577;1257;61100;-27
2023/12/18 05:27:29;;;;;;;11.80;6.90;;;;;;;5.29;78.03;99365.41;105669;1258;73921;-27
2023/12/18 05:29:56;;;;;;;7.80;5.70;;;;;;;5.11;78.68;99357.98;105514;1259;74187;-28
2023/12/18 05:32:23;;;;;;;12.70;6.70;;;;;;;5.39;77.57;99340.45;105606;1254;70622;-27
2023/12/18 05:34:50;;;;;;;9.40;6.20;;;;;;;5.54;76.81;99349.94;105584;1254;61125;-27
2023/12/18 05:37:17;;;;;;;12.60;7.20;;;;;;;5.59;76.53;99342.97;105654;1255;61170;-27
2023/12/18 05:39:44;;;;;;;9.00;5.50;;;;;;;5.37;77.57;99343.65;105658;1258;73822;-29
2023/12/18 05:42:14;;;;;;;13.50;7.10;;;;;;;5.23;78.19;99350.64;105672;1254;74339;-27
2023/12/18 05:44:41;;;;;;;10.40;6.30;;;;;;;5.12;78.75;99338.12;105664;1254;72484;-27
2023/12/18 05:47:08;;;;;;;10.20;6.20;;;;;;;5.40;77.88;99338.85;105627;1254;61049;-27
2023/12/18 05:49:35;;;;;;;13.70;7.20;;;;;;;5.51;77.43;99350.30;105650;1259;61161;-27
2023/12/18 05:52:03;;;;;;;10.60;5.60;;;;;;;5.52;77.48;99354.54;105684;1259;74258;-28
2023/12/18 05:54:30;;;;;;;16.20;8.70;;;;;;;5.27;78.08;99340.91;105417;1260;74411;-27
2023/12/18 05:56:57;;;;;;;8.50;5.90;;;;;;;5.12;79.44;99350.88;105627;1255;72640;-28
2023/12/18 05:59:24;;;;;;;12.10;6.60;;;;;;;5.29;78.74;99342.40;105687;1255;61032;-27
2023/12/18 06:01:51;;;;;;;16.50;7.90;;;;;;;5.52;77.72;99342.52;105696;1259;61245;-27
2023/12/18 06:04:18;;;;;;;15.40;8.40;;;;;;;5.37;78.12;99342.30;105722;1256;73846;-27
2023/12/18 06:06:46;;;;;;;12.90;6.70;;;;;;;5.28;78.83;99351.92;105668;1255;74211;-27
2023/12/18 06:09:14;;;;;;;9.10;6.00;;;;;;;5.18;79.59;99360.67;105676;1254;72646;-27
2023/12/18 06:11:41;;;;;;;15.40;7.10;;;;;;;5.28;79.54;99356.34;105551;1254;61690;-27
2023/12/18 06:14:08;;;;;;;15.00;7.80;;;;;;;5.45;79.14;99361.48;105658;1257;61109;-27
2023/12/18 06:16:34;;;;;;;13.50;8.30;;;;;;;5.36;79.51;99352.15;105640;1258;73818;-27
2023/12/18 06:19:01;;;;;;;12.10;7.00;;;;;;;5.25;80.62;99373.05;105683;1254;74348;-28
2023/12/18 06:21:29;;;;;;;17.70;8.00;;;;;;;5.13;81.24;99377.31;105631;1254;72700;-27
2023/12/18 06:23:56;;;;;;;14.00;7.90;;;;;;;5.10;82.51;99371.63;105672;1258;61827;-27
2023/12/18 06:26:23;;;;;;;14.20;8.70;;;;;;;5.33;81.90;99375.18;105657;1258;61160;-27
2023/12/18 06:28:50;;;;;;;12.70;7.80;;;;;;;5.35;81.74;99376.33;105670;1254;73767;-27
2023/12/18 06:31:17;;;;;;;14.00;8.20;;;;;;;5.25;82.41;99397.47;105649;1254;74260;-27
2023/12/18 06:33:44;;;;;;;15.80;8.80;;;;;;;4.94;83.74;99390.34;105609;1257;72666;-27
2023/12/18 06:36:15;;;;;;;10.60;7.60;;;;;;;5.20;83.78;99397.63;105621;1254;61159;-26
2023/12/18 06:38:43;;;;;;;13.70;7.70;;;;;;;5.43;82.25;99395.98;105499;1253;61185;-25
2023/12/18 06:41:09;;;;;;;19.50;9.60;;;;;;;5.29;82.63;99399.70;105677;1258;73909;-25
2023/12/18 06:43:36;;;;;;;16.30;8.80;;;;;;;5.25;83.30;99399.02;105651;1254;74292;-25
2023/12/18 06:46:04;;;;;;;12.70;8.20;;;;;;;5.05;84.21;99409.21;105653;1254;72638;-25
2023/12/18 06:48:32;;;;;;;15.70;8.10;;;;;;;5.15;84.52;99410.95;105610;1254;61690;-25
2023/12/18 06:50:59;;;;;;;17.70;7.80;;;;;;;5.58;82.68;99413.32;105554;1254;61151;-25
2023/12/18 06:53:26;;;;;;;15.80;8.80;;;;;;;5.51;82.51;99395.61;105560;1254;74254;-25
2023/12/18 06:55:55;;;;;;;15.20;9.20;;;;;;;5.34;83.19;99406.48;105658;1257;74833;-25
2023/12/18 06:58:22;;;;;;;14.80;9.40;;;;;;;5.15;84.45;99416.25;105464;1254;72667;-25
2023/12/18 07:00:50;;;;;;;12.70;7.40;;;;;;;5.22;84.71;99410.41;105492;1257;62003;-25
2023/12/18 07:03:17;;;;;;;13.50;7.40;;;;;;;5.52;83.24;99410.52;105461;1255;61269;-25
2023/12/18 07:05:45;;;;;;;15.40;8.70;;;;;;;5.61;82.59;99415.18;105481;1254;73735;-25
2023/12/18 07:08:12;;;;;;;12.90;8.00;;;;;;;5.42;83.36;99407.79;105509;1254;74414;-25
2023/12/18 07:10:40;;;;;;;10.80;7.10;;;;;;;5.27;84.38;99416.13;105456;1253;72566;-25
2023/12/18 07:13:06;;;;;;;11.10;6.90;;;;;;;5.29;84.96;99424.13;105611;1254;61746;-25
2023/12/18 07:15:34;;;;;;;13.80;7.90;;;;;;;5.56;83.73;99425.60;105610;1258;61176;-25
2023/12/18 07:18:01;;;;;;;13.30;8.20;;;;;;;5.53;83.60;99424.44;105629;1257;73971;-25
2023/12/18 07:20:29;;;;;;;14.20;8.70;;;;;;;5.39;83.83;99416.52;105402;1254;74781;-26
2023/12/18 07:22:56;;;;;;;14.90;8.40;;;;;;;5.18;85.20;99425.24;105482;1255;72697;-25
2023/12/18 07:25:23;;;;;;;8.20;4.80;;;;;;;5.18;85.99;99430.39;105388;1259;61128;-26
2023/12/18 07:27:50;;;;;;;9.10;6.10;;;;;;;5.55;84.44;99425.35;105571;1258;61212;-26
2023/12/18 07:30:20;;;;;;;13.50;7.70;;;;;;;5.68;83.28;99418.98;105645;1259;73693;-26
2023/12/18 07:32:47;;;;;;;15.00;7.40;;;;;;;5.53;83.86;99423.88;105614;1254;74310;-27
2023/12/18 07:35:14;;;;;;;12.70;8.80;;;;;;;5.31;84.90;99414.75;105602;1254;72458;-26
2023/12/18 07:37:41;;;;;;;10.50;6.40;;;;;;;5.19;86.16;99427.77;105493;1258;61736;-27
2023/12/18 07:40:09;;;;;;;10.80;7.60;;;;;;;5.62;84.80;99430.29;105567;1258;61166;-27
2023/12/18 07:42:36;;;;;;;10.40;6.90;;;;;;;5.63;84.02;99419.23;105403;1253;73636;-27
2023/12/18 07:45:04;;;;;;;11.80;8.20;;;;;;;5.57;83.86;99424.02;105533;1257;74099;-27
2023/12/18 07:47:33;;;;;;;10.70;6.60;;;;;;;5.44;84.41;99435.04;105604;1257;72640;-27
2023/12/18 07:50:00;;;;;;;10.20;6.10;;;;;;;5.28;85.43;99423.34;105679;1254;61759;-27
2023/12/18 07:54:51;;;;;;;11.90;6.90;;;;;;;5.58;84.31;99433.09;102676;1292;600791;-25
2023/12/18 07:57:18;;;;;;;11.70;7.30;;;;;;;5.52;84.60;99436.52;104816;1270;61180;-24
2023/12/18 07:59:46;;;;;;;12.80;7.10;;;;;;;5.24;86.14;99431.31;104819;1266;61071;-25
2023/12/18 08:02:14;;;;;;;10.80;7.00;;;;;;;5.26;86.67;99432.58;104791;1271;71397;-25
2023/12/18 08:04:42;;;;;;;12.70;7.20;;;;;;;5.66;84.83;99441.96;104808;1266;74306;-27
2023/12/18 08:07:09;;;;;;;10.10;6.50;;;;;;;5.67;84.86;99447.08;104831;1266;72629;-27
2023/12/18 08:09:37;;;;;;;15.70;8.70;;;;;;;5.46;85.68;99454.05;104681;1267;162467;-27
2023/12/18 08:12:06;;;;;;;10.70;7.50;;;;;;;5.21;87.05;99449.53;104845;1263;61057;-27
2023/12/18 08:14:33;;;;;;;12.80;7.30;;;;;;;5.31;87.28;99443.52;105044;1263;74352;-27
2023/12/18 08:17:01;;;;;;;14.30;8.30;;;;;;;5.51;86.62;99447.94;105027;1264;74278;-27
2023/12/18 08:19:29;;;;;;;11.50;8.20;;;;;;;5.42;87.27;99448.58;105098;1270;72681;-27
2023/12/18 08:21:57;;;;;;;12.00;6.40;;;;;;;5.21;88.57;99442.64;105119;1270;61090;-25
2023/12/18 08:24:25;;;;;;;6.90;4.50;;;;;;;5.09;89.71;99440.66;105001;1269;61184;-25
2023/12/18 08:26:53;;;;;;;7.80;5.60;;;;;;;5.30;89.19;99426.01;104900;1264;73032;-25
2023/12/18 08:36:59;;;;;;;10.30;5.70;;;;;;;5.43;89.63;99448.69;102646;1294;598770;-24
2023/12/18 08:39:27;;;;;;;12.00;7.00;;;;;;;5.59;88.25;99444.42;104772;1267;61120;-24
2023/12/18 08:41:55;;;;;;;12.30;7.20;;;;;;;5.46;88.40;99434.59;104754;1266;61110;-24
2023/12/18 08:44:23;;;;;;;10.10;6.30;;;;;;;5.26;89.39;99429.30;104740;1273;71026;-25
2023/12/18 08:46:51;;;;;;;9.00;6.20;;;;;;;5.18;90.64;99435.73;104774;1272;73379;-26
2023/12/18 08:56:58;;;;;;;9.30;6.80;;;;;;;5.42;88.84;99435.33;103121;1292;599346;-23
2023/12/18 08:59:26;;;;;;;9.90;6.60;;;;;;;5.10;90.42;99427.89;104795;1270;61196;-25
2023/12/18 09:01:54;;;;;;;11.70;6.40;;;;;;;5.60;88.69;99445.05;104835;1266;61228;-26
2023/12/18 09:12:00;;;;;;;13.00;8.50;;;;;;;5.46;89.34;99443.05;103148;1290;600131;-24
2023/12/18 09:14:28;;;;;;;12.20;7.30;;;;;;;5.65;87.63;99450.27;104789;1267;61190;-26
2023/12/18 09:24:36;;;;;;;8.90;6.10;;;;;;;5.58;88.14;99448.93;102674;1295;598721;-25
2023/12/18 09:27:04;;;;;;;9.80;6.20;;;;;;;5.50;88.04;99441.58;104799;1270;61143;-26
2023/12/18 09:29:32;;;;;;;11.80;7.60;;;;;;;5.44;88.12;99434.87;104796;1266;61171;-26
2023/12/18 09:32:02;;;;;;;9.20;6.10;;;;;;;5.34;89.05;99444.34;104790;1272;73331;-26
2023/12/18 09:34:30;;;;;;;9.40;6.70;;;;;;;5.36;89.28;99436.85;104856;1271;75066;-26
2023/12/18 09:36:58;;;;;;;9.90;6.80;;;;;;;5.70;87.58;99425.56;104627;1267;74982;-26
2023/12/18 09:39:26;;;;;;;10.60;7.20;;;;;;;5.70;87.36;99423.49;104584;1267;204475;-26
2023/12/18 09:42:00;;;;;;;9.30;6.50;;;;;;;5.64;88.10;99433.65;104717;1270;61144;-26
2023/12/18 09:52:10;;;;;;;10.60;7.30;;;;;;;5.61;88.17;99421.04;102645;1295;599970;-25
2023/12/18 09:54:40;;;;;;;9.10;6.20;;;;;;;5.41;89.06;99418.30;104788;1267;61172;-25
2023/12/18 09:57:08;;;;;;;10.80;6.80;;;;;;;5.42;89.69;99426.91;104683;1270;61132;-25
2023/12/18 10:07:32;;;;;;;9.70;6.40;;;;;;;5.38;89.88;99422.13;102448;1292;615094;-26
2023/12/18 10:10:01;;;;;;;9.40;5.90;;;;;;;5.56;89.21;99413.56;104893;1267;61556;-26
2023/12/18 10:12:29;;;;;;;8.70;5.90;;;;;;;5.83;87.73;99407.09;104854;1265;61204;-24
2023/12/18 10:14:56;;;;;;;8.40;6.30;;;;;;;5.86;87.26;99405.38;104984;1266;72449;-27
2023/12/18 10:17:23;;;;;;;8.30;6.60;;;;;;;5.61;88.44;99396.58;104900;1270;73411;-27
2023/12/18 10:19:51;;;;;;;10.80;7.00;;;;;;;5.47;89.22;99397.17;104636;1266;180753;-24
2023/12/18 10:22:18;;;;;;;9.60;5.40;;;;;;;5.88;87.92;99397.20;104776;1264;61177;-24
2023/12/18 10:24:45;;;;;;;11.30;6.20;;;;;;;5.94;86.80;99390.65;105109;1269;61209;-24
2023/12/18 10:27:12;;;;;;;10.60;6.20;;;;;;;5.71;87.08;99395.19;105050;1266;72300;-25
2023/12/18 10:29:39;;;;;;;7.60;5.50;;;;;;;5.49;88.17;99401.02;105074;1263;74665;-24
2023/12/18 10:32:08;;;;;;;8.40;6.30;;;;;;;5.50;88.83;99394.26;105176;1263;72592;-24
2023/12/18 10:34:36;;;;;;;7.30;4.90;;;;;;;5.84;87.01;99393.24;104833;1262;61668;-24
2023/12/18 10:37:04;;;;;;;9.20;6.70;;;;;;;5.76;86.96;99406.64;104917;1267;61109;-25
2023/12/18 10:39:32;;;;;;;9.70;5.70;;;;;;;5.63;87.60;99400.61;104805;1266;72666;-24
2023/12/18 10:42:04;;;;;;;8.20;6.00;;;;;;;5.53;88.23;99405.62;104871;1266;74305;-26
2023/12/18 10:44:32;;;;;;;9.30;5.80;;;;;;;5.64;88.37;99396.40;104845;1265;72175;-26
2023/12/18 10:46:59;;;;;;;6.60;5.20;;;;;;;6.08;85.86;99392.66;104871;1266;61184;-26
2023/12/18 10:49:28;;;;;;;9.20;6.50;;;;;;;6.02;85.71;99371.77;104853;1267;61197;-26
2023/12/18 10:51:56;;;;;;;7.20;4.70;;;;;;;5.86;86.53;99378.64;104941;1269;72807;-26
2023/12/18 10:54:23;;;;;;;10.20;6.20;;;;;;;5.70;87.30;99375.23;104828;1273;74694;-26
2023/12/18 10:56:50;;;;;;;7.60;6.10;;;;;;;5.88;87.06;99373.70;105134;1261;72494;-26
2023/12/18 10:59:17;;;;;;;11.30;6.40;;;;;;;6.05;85.73;99376.44;104980;1263;61184;-27
2023/12/18 11:01:45;;;;;;;10.30;6.10;;;;;;;6.06;85.37;99381.00;104950;1267;61160;-26
2023/12/18 11:04:13;;;;;;;8.40;5.70;;;;;;;5.87;85.85;99378.77;105063;1265;73062;-26
2023/12/18 11:06:40;;;;;;;8.80;5.40;;;;;;;5.60;87.48;99386.98;105084;1263;73360;-26
2023/12/18 11:09:07;;;;;;;8.80;5.80;;;;;;;5.90;86.96;99394.66;105447;1262;72131;-26
2023/12/18 11:11:35;;;;;;;13.60;7.70;;;;;;;6.16;85.04;99389.39;105385;1262;61055;-27
2023/12/18 11:14:11;;;;;;;7.40;5.00;;;;;;;6.05;85.14;99379.55;105482;1269;61107;-26
2023/12/18 11:16:50;;;;;;;12.20;6.60;;;;;;;5.81;86.21;99383.93;105452;1258;72047;-26
2023/12/18 11:19:43;;;;;;;7.00;4.80;;;;;;;5.67;87.09;99383.70;105446;1263;72627;-26
2023/12/18 11:22:11;;;;;;;7.80;5.90;;;;;;;5.90;86.19;99386.54;105171;1264;72516;-26
2023/12/18 11:24:38;;;;;;;7.70;5.80;;;;;;;5.98;85.33;99390.73;105219;1258;61067;-26
2023/12/18 11:27:06;;;;;;;9.50;6.20;;;;;;;5.92;85.77;99389.52;105105;1264;62172;-26
2023/12/18 11:29:39;;;;;;;9.10;6.40;;;;;;;5.80;86.04;99397.07;105085;1263;73592;-26
2023/12/18 11:32:07;;;;;;;7.90;5.40;;;;;;;5.66;86.84;99402.36;105177;1261;74179;-26
2023/12/18 11:34:34;;;;;;;10.10;6.60;;;;;;;6.03;85.50;99407.91;105320;1260;72504;-26
2023/12/18 11:37:02;;;;;;;9.80;6.40;;;;;;;6.10;84.86;99407.34;105276;1258;60994;-26
2023/12/18 11:39:39;;;;;;;9.20;6.70;;;;;;;5.98;85.33;99403.37;105365;1259;61190;-26
2023/12/18 11:42:07;;;;;;;9.20;5.90;;;;;;;5.67;86.64;99392.62;105209;1258;71887;-26
2023/12/18 11:44:35;;;;;;;8.90;5.80;;;;;;;5.69;86.95;99393.25;105619;1261;73103;-26
2023/12/18 11:47:03;;;;;;;10.30;6.60;;;;;;;6.02;85.60;99394.14;105434;1261;72488;-27
2023/12/18 11:49:30;;;;;;;11.80;5.60;;;;;;;6.02;85.03;99403.66;105277;1263;61119;-26
2023/12/18 11:51:58;;;;;;;8.90;6.30;;;;;;;5.88;85.93;99401.98;105568;1256;61070;-26
2023/12/18 11:54:26;;;;;;;8.80;4.90;;;;;;;5.76;86.86;99411.96;105203;1260;73385;-26
2023/12/18 11:56:55;;;;;;;8.00;5.20;;;;;;;5.81;87.62;99418.23;105393;1263;73727;-26
2023/12/18 11:59:23;;;;;;;9.90;6.20;;;;;;;6.06;86.02;99410.00;105204;1263;71883;-26
2023/12/18 12:01:53;;;;;;;6.80;5.10;;;;;;;6.05;86.04;99419.00;105205;1257;61077;-26
2023/12/18 12:04:20;;;;;;;8.70;5.90;;;;;;;5.90;86.47;99418.64;105558;1263;61279;-26
2023/12/18 12:06:48;;;;;;;9.70;5.60;;;;;;;5.50;88.56;99419.22;105224;1265;73158;-26
2023/12/18 12:09:15;;;;;;;7.00;5.30;;;;;;;5.90;87.40;99412.26;105481;1262;75470;-26
2023/12/18 12:11:42;;;;;;;8.40;5.50;;;;;;;6.09;85.67;99417.89;105322;1262;72652;-26
2023/12/18 12:14:10;;;;;;;10.50;5.90;;;;;;;5.92;86.05;99415.58;105406;1262;61770;-26
2023/12/18 12:16:38;;;;;;;7.90;5.70;;;;;;;5.75;87.57;99418.05;105576;1262;61106;-25
2023/12/18 12:19:05;;;;;;;8.70;5.60;;;;;;;5.47;88.74;99413.54;105626;1261;73216;-26